Time;durP1;ratioP1;P1;durP2;ratioP2;P2;SDS_P1;SDS_P2;PMS_P1;PMS_P2;Temp;Humidity;BMP_temperature;BMP_pressure;BME280_temperature;BME280_humidity;BME280_pressure;Samples;Min_cycle;Max_cycle;Signal;HPM_P1;HPM_P2
2021/05/15 00:00:37;;;;;;;0.20;0.20;;;;;;;20.61;29.87;98690.56;5095784;28;20074;-50
2021/05/15 00:03:02;;;;;;;0.20;0.20;;;;;;;20.67;29.91;98690.50;5095494;28;20064;-50
2021/05/15 00:05:28;;;;;;;0.30;0.28;;;;;;;20.67;29.89;98684.91;5095250;28;20441;-47
2021/05/15 00:07:54;;;;;;;0.17;0.17;;;;;;;20.73;29.92;98684.53;5077113;28;20119;-49
2021/05/15 00:10:21;;;;;;;0.10;0.10;;;;;;;20.75;29.92;98684.22;5095667;28;20444;-49
2021/05/15 00:12:48;;;;;;;0.15;0.15;;;;;;;20.69;29.94;98682.66;5095533;28;20031;-50
2021/05/15 00:15:14;;;;;;;0.35;0.25;;;;;;;20.63;30.01;98685.50;5095123;28;20542;-45
2021/05/15 00:17:41;;;;;;;0.20;0.20;;;;;;;20.65;30.09;98680.44;5094882;28;20032;-48
2021/05/15 00:20:12;;;;;;;0.65;0.65;;;;;;;20.72;29.98;98685.66;5094934;28;20498;-47
2021/05/15 00:22:39;;;;;;;0.30;0.30;;;;;;;20.78;29.77;98681.63;5094866;28;20036;-50
2021/05/15 00:25:06;;;;;;;0.10;0.10;;;;;;;20.83;29.86;98686.31;5094793;28;20070;-48
2021/05/15 00:27:33;;;;;;;0.43;0.43;;;;;;;20.83;29.78;98689.09;5076705;28;20028;-48
2021/05/15 00:29:58;;;;;;;0.20;0.20;;;;;;;20.86;29.81;98682.06;5095017;28;20060;-46
2021/05/15 00:32:24;;;;;;;0.10;0.10;;;;;;;20.91;29.87;98677.22;5094709;28;20062;-46
2021/05/15 00:34:51;;;;;;;0.10;0.10;;;;;;;20.90;29.86;98678.34;5094914;28;20503;-50
2021/05/15 00:37:17;;;;;;;0.45;0.35;;;;;;;20.91;29.86;98682.00;5094774;28;20106;-50
2021/05/15 00:39:42;;;;;;;0.22;0.22;;;;;;;20.95;29.81;98675.50;5094665;28;20050;-45
2021/05/15 00:42:08;;;;;;;0.15;0.15;;;;;;;21.15;29.61;98676.25;5076771;28;20068;-46
2021/05/15 00:44:44;;;;;;;0.28;0.28;;;;;;;21.57;29.14;98673.50;5076502;28;20097;-50
2021/05/15 00:47:22;;;;;;;0.32;0.32;;;;;;;21.93;28.70;98670.75;5094302;28;20159;-51
2021/05/15 00:49:50;;;;;;;0.15;0.15;;;;;;;21.97;28.61;98674.59;5075977;28;20032;-48
2021/05/15 00:52:17;;;;;;;0.30;0.30;;;;;;;21.97;28.69;98666.19;5094187;28;20119;-50
2021/05/15 00:54:43;;;;;;;0.10;0.10;;;;;;;22.22;28.44;98672.34;5094636;28;20032;-49
2021/05/15 00:57:11;;;;;;;0.10;0.10;;;;;;;22.79;28.02;98671.00;5094809;28;20036;-48
2021/05/15 00:59:38;;;;;;;0.50;0.50;;;;;;;23.41;27.14;98665.41;5094178;28;20066;-48
2021/05/15 01:02:06;;;;;;;0.47;0.47;;;;;;;23.93;26.52;98664.75;5094249;28;20032;-49
2021/05/15 01:04:31;;;;;;;0.20;0.20;;;;;;;24.51;26.46;98673.03;5094286;28;20108;-47
2021/05/15 01:06:59;;;;;;;0.17;0.17;;;;;;;25.08;25.47;98662.75;5094072;28;20028;-48
2021/05/15 01:09:25;;;;;;;0.15;0.15;;;;;;;25.63;25.24;98655.41;5093399;28;20032;-50
2021/05/15 01:11:51;;;;;;;1.25;0.50;;;;;;;26.14;25.07;98661.91;5094161;28;20445;-51
2021/05/15 01:14:17;;;;;;;0.30;0.30;;;;;;;26.64;24.75;98667.81;5075737;28;20060;-52
2021/05/15 01:16:43;;;;;;;1.25;0.32;;;;;;;27.07;24.12;98669.38;5093821;28;20028;-47
2021/05/15 01:19:09;;;;;;;0.20;0.20;;;;;;;27.57;23.78;98668.28;5094042;28;20028;-48
2021/05/15 01:21:35;;;;;;;0.40;0.40;;;;;;;28.07;23.55;98668.28;5093844;28;20031;-50
2021/05/15 01:24:03;;;;;;;0.10;0.10;;;;;;;28.45;23.44;98661.38;5058893;28;20032;-48
2021/05/15 01:26:31;;;;;;;0.10;0.10;;;;;;;28.87;23.26;98655.31;5075545;28;20552;-49
2021/05/15 01:28:59;;;;;;;0.30;0.30;;;;;;;29.24;23.04;98651.50;5093529;28;20039;-49
2021/05/15 01:31:26;;;;;;;0.10;0.10;;;;;;;29.60;22.71;98653.22;5093360;28;20115;-52
2021/05/15 01:33:52;;;;;;;0.32;0.32;;;;;;;29.95;22.43;98658.13;5093717;28;20088;-51
2021/05/15 01:36:22;;;;;;;0.10;0.10;;;;;;;30.29;22.52;98647.16;5093944;28;20028;-50
2021/05/15 01:38:48;;;;;;;0.50;0.50;;;;;;;30.38;22.55;98659.09;5093607;28;20039;-49
2021/05/15 01:41:16;;;;;;;0.30;0.30;;;;;;;30.19;22.74;98656.25;5093270;28;20028;-48
2021/05/15 01:43:42;;;;;;;1.80;0.30;;;;;;;29.98;23.02;98651.72;5093468;28;20028;-47
2021/05/15 01:46:09;;;;;;;0.10;0.10;;;;;;;30.08;23.14;98649.50;5093120;28;20056;-51
2021/05/15 01:48:36;;;;;;;0.20;0.20;;;;;;;30.25;23.00;98646.25;5093786;28;20088;-51
2021/05/15 01:51:06;;;;;;;0.00;0.00;;;;;;;30.50;22.59;98657.34;5093249;28;20036;-52
2021/05/15 01:53:38;;;;;;;0.38;0.28;;;;;;;30.51;22.65;98656.16;5093718;28;20034;-50
2021/05/15 01:56:06;;;;;;;0.10;0.10;;;;;;;30.63;22.69;98652.34;5093274;28;20039;-48
2021/05/15 01:58:32;;;;;;;0.10;0.10;;;;;;;31.01;22.27;98654.34;5093464;28;20095;-50
2021/05/15 02:00:58;;;;;;;0.00;0.00;;;;;;;31.70;21.78;98658.38;5093070;28;20137;-50
2021/05/15 02:03:23;;;;;;;0.10;0.10;;;;;;;32.33;21.29;98653.28;5093395;28;20035;-50
2021/05/15 02:05:50;;;;;;;0.10;0.10;;;;;;;32.16;21.62;98654.69;5074828;28;20466;-47
2021/05/15 02:08:17;;;;;;;0.32;0.32;;;;;;;31.58;22.20;98653.75;5074931;28;20440;-47
2021/05/15 02:10:43;;;;;;;0.25;0.25;;;;;;;31.33;22.22;98651.28;5074620;28;20039;-47
2021/05/15 02:13:10;;;;;;;0.20;0.20;;;;;;;31.33;22.60;98650.44;5074759;28;20031;-49
2021/05/15 02:15:37;;;;;;;0.00;0.00;;;;;;;31.25;22.51;98653.16;5074661;28;20122;-50
2021/05/15 02:18:07;;;;;;;0.15;0.15;;;;;;;30.87;22.93;98643.50;5075036;28;20039;-49
2021/05/15 02:20:35;;;;;;;0.10;0.10;;;;;;;30.99;22.72;98644.53;5092187;28;20088;-49
2021/05/15 02:23:01;;;;;;;0.43;0.30;;;;;;;31.77;21.84;98650.81;5093233;28;20032;-51
2021/05/15 02:25:27;;;;;;;0.17;0.13;;;;;;;32.16;21.51;98652.66;5092624;28;20119;-51
2021/05/15 02:27:54;;;;;;;0.10;0.10;;;;;;;32.00;21.94;98646.28;5092550;28;20513;-52
2021/05/15 02:30:22;;;;;;;0.20;0.20;;;;;;;31.86;22.26;98639.22;5092564;28;20032;-49
2021/05/15 02:32:48;;;;;;;0.10;0.10;;;;;;;31.98;22.13;98652.34;5074584;28;20500;-51
2021/05/15 02:35:14;;;;;;;0.35;0.35;;;;;;;32.01;22.25;98642.22;5074338;28;20073;-51
2021/05/15 02:37:41;;;;;;;0.10;0.10;;;;;;;32.28;21.66;98637.38;5092987;28;20066;-49
2021/05/15 02:40:08;;;;;;;0.10;0.10;;;;;;;33.19;20.91;98642.94;5091736;28;20078;-50
2021/05/15 02:42:35;;;;;;;0.10;0.10;;;;;;;34.45;20.18;98631.69;5073851;28;20127;-49
2021/05/15 02:45:01;;;;;;;0.10;0.10;;;;;;;35.70;19.23;98638.91;5074417;28;20548;-49
2021/05/15 02:47:27;;;;;;;0.00;0.00;;;;;;;36.74;18.55;98632.94;5092545;28;20127;-50
2021/05/15 02:49:52;;;;;;;0.00;0.00;;;;;;;37.44;18.29;98637.03;5092433;28;20398;-51
2021/05/15 02:52:18;;;;;;;0.57;0.57;;;;;;;37.79;17.84;98629.41;5093003;28;20043;-51
2021/05/15 02:54:44;;;;;;;0.10;0.10;;;;;;;38.16;18.09;98634.34;5092730;28;20080;-50
2021/05/15 02:57:10;;;;;;;0.32;0.30;;;;;;;38.70;17.78;98630.88;5092553;28;20123;-47
2021/05/15 02:59:36;;;;;;;0.10;0.10;;;;;;;39.06;17.26;98627.50;5074291;28;20035;-49
2021/05/15 03:02:03;;;;;;;0.00;0.00;;;;;;;39.54;17.36;98624.72;5092285;28;20073;-50
2021/05/15 03:04:30;;;;;;;0.03;0.03;;;;;;;39.99;17.20;98624.38;5074206;28;20036;-49
2021/05/15 03:06:56;;;;;;;0.10;0.10;;;;;;;40.43;16.86;98624.34;5074154;28;20196;-50
2021/05/15 03:09:22;;;;;;;0.15;0.15;;;;;;;40.83;16.92;98624.34;5092182;28;20611;-49
2021/05/15 03:11:48;;;;;;;0.17;0.17;;;;;;;41.17;16.59;98626.06;5092874;28;20079;-50
2021/05/15 03:14:13;;;;;;;0.10;0.10;;;;;;;41.51;16.59;98621.97;5092381;28;20486;-49
2021/05/15 03:16:39;;;;;;;0.00;0.00;;;;;;;41.80;16.37;98615.47;5092303;28;20512;-51
2021/05/15 03:19:05;;;;;;;0.75;0.22;;;;;;;42.09;16.37;98615.50;5092503;28;20089;-50
2021/05/15 03:21:31;;;;;;;0.10;0.10;;;;;;;42.26;16.29;98615.47;5092709;28;20056;-49
2021/05/15 03:23:57;;;;;;;0.10;0.10;;;;;;;42.33;16.08;98612.38;5092180;28;20081;-49
2021/05/15 03:26:23;;;;;;;0.17;0.10;;;;;;;42.62;15.71;98609.47;5073966;28;20036;-51
2021/05/15 03:28:49;;;;;;;0.10;0.10;;;;;;;42.76;15.81;98599.59;5091229;28;20370;-49
2021/05/15 03:31:15;;;;;;;0.10;0.10;;;;;;;43.02;15.50;98597.56;5091779;28;20442;-47
2021/05/15 03:33:41;;;;;;;0.10;0.10;;;;;;;43.29;15.47;98589.66;5094768;28;20032;-48
2021/05/15 03:36:07;;;;;;;0.25;0.25;;;;;;;43.58;15.46;98583.75;5094541;28;20046;-49
2021/05/15 03:38:34;;;;;;;0.03;0.03;;;;;;;43.33;15.44;98578.81;5094667;28;20032;-49
2021/05/15 03:41:00;;;;;;;0.10;0.10;;;;;;;43.23;15.81;98584.47;5094580;28;20604;-50
2021/05/15 03:43:27;;;;;;;0.20;0.20;;;;;;;43.42;15.67;98573.16;5094603;28;20043;-50
2021/05/15 03:45:53;;;;;;;0.45;0.40;;;;;;;43.36;15.46;98570.03;5094072;28;20036;-53
2021/05/15 03:48:20;;;;;;;1.35;0.25;;;;;;;43.69;15.43;98571.81;5076044;28;20055;-47
2021/05/15 03:50:53;;;;;;;0.10;0.10;;;;;;;44.00;15.17;98557.50;5094143;28;20494;-47
2021/05/15 03:53:20;;;;;;;0.10;0.10;;;;;;;44.18;14.99;98562.59;5091608;28;20126;-47
2021/05/15 03:55:46;;;;;;;0.10;0.10;;;;;;;44.01;15.01;98556.22;5092538;28;20077;-48
2021/05/15 03:58:13;;;;;;;0.10;0.10;;;;;;;43.72;15.37;98547.75;5093662;28;20076;-50
2021/05/15 04:00:39;;;;;;;0.10;0.10;;;;;;;43.38;15.61;98558.00;5086174;28;20024;-56
2021/05/15 04:03:05;;;;;;;0.10;0.10;;;;;;;43.55;15.47;98556.59;5090650;28;20064;-54
2021/05/15 04:05:31;;;;;;;0.10;0.10;;;;;;;43.86;15.27;98555.13;5074277;28;20036;-55
2021/05/15 04:07:57;;;;;;;0.10;0.10;;;;;;;44.17;14.80;98549.41;5092645;28;20028;-54
2021/05/15 04:10:23;;;;;;;0.08;0.08;;;;;;;44.47;14.79;98538.41;5093043;28;20044;-56
2021/05/15 04:18:14;;;;;;;0.10;0.10;;;;;;;44.81;14.81;98522.19;5077524;28;20094;-56
2021/05/15 04:20:42;;;;;;;0.10;0.10;;;;;;;44.72;14.75;98519.25;5092271;28;20047;-55
2021/05/15 04:23:09;;;;;;;0.20;0.20;;;;;;;44.60;14.95;98518.84;5074122;28;20050;-55
2021/05/15 04:25:35;;;;;;;0.22;0.22;;;;;;;44.42;15.05;98521.63;5092800;28;20032;-53
2021/05/15 04:28:03;;;;;;;0.13;0.13;;;;;;;44.21;15.30;98518.25;5073972;28;20028;-54
2021/05/15 04:30:29;;;;;;;0.10;0.10;;;;;;;43.99;15.77;98509.59;5092414;28;20157;-55
2021/05/15 04:32:55;;;;;;;0.10;0.10;;;;;;;43.81;15.63;98513.13;5057366;28;20061;-55
2021/05/15 04:35:21;;;;;;;0.10;0.10;;;;;;;43.65;15.95;98502.56;5092070;28;20036;-56
2021/05/15 04:37:48;;;;;;;0.80;0.47;;;;;;;43.43;16.14;98502.53;5092241;28;20501;-55
2021/05/15 04:40:14;;;;;;;0.30;0.20;;;;;;;43.21;15.98;98493.78;5091633;28;20151;-55
2021/05/15 04:42:40;;;;;;;0.10;0.10;;;;;;;42.99;16.48;98496.56;5090994;28;20020;-55
2021/05/15 04:45:10;;;;;;;0.10;0.10;;;;;;;42.76;16.50;98494.84;5091613;28;20034;-56
2021/05/15 04:47:37;;;;;;;0.10;0.10;;;;;;;42.51;16.94;98488.56;5091469;28;20127;-56
2021/05/15 04:50:05;;;;;;;0.10;0.10;;;;;;;42.36;17.42;98484.50;5089236;28;20028;-56
2021/05/15 04:52:31;;;;;;;0.10;0.10;;;;;;;42.17;17.09;98492.91;5089291;28;20035;-55
2021/05/15 04:54:57;;;;;;;0.10;0.10;;;;;;;41.88;17.30;98484.28;5072123;28;20020;-60
2021/05/15 04:57:23;;;;;;;0.15;0.15;;;;;;;41.53;17.56;98488.97;5088436;28;20043;-59
2021/05/15 04:59:48;;;;;;;0.10;0.10;;;;;;;41.32;17.42;98486.19;5089877;28;20078;-61
2021/05/15 05:02:14;;;;;;;0.10;0.10;;;;;;;41.14;17.76;98477.19;5087839;28;20105;-59
2021/05/15 05:04:40;;;;;;;0.00;0.00;;;;;;;40.93;17.80;98487.19;5090055;28;20127;-56
2021/05/15 05:07:06;;;;;;;0.10;0.10;;;;;;;40.68;18.05;98474.19;5090509;28;20142;-55
2021/05/15 05:09:31;;;;;;;0.20;0.20;;;;;;;40.23;18.28;98478.47;5087204;28;20078;-50
2021/05/15 05:11:58;;;;;;;0.40;0.40;;;;;;;39.58;18.81;98468.31;5090332;28;20020;-53
2021/05/15 05:14:24;;;;;;;0.10;0.10;;;;;;;38.89;19.07;98459.25;5089713;28;20035;-49
2021/05/15 05:16:54;;;;;;;0.10;0.10;;;;;;;38.19;19.42;98466.41;5089643;28;20379;-51
2021/05/15 05:19:21;;;;;;;0.08;0.08;;;;;;;37.56;19.55;98463.88;5087652;28;20086;-50
2021/05/15 05:21:47;;;;;;;0.10;0.10;;;;;;;36.99;20.04;98458.28;5089687;28;20054;-50
2021/05/15 05:24:13;;;;;;;0.17;0.17;;;;;;;36.46;20.49;98462.34;5088685;28;20039;-53
2021/05/15 05:26:39;;;;;;;1.23;0.47;;;;;;;35.92;20.72;98457.69;5089365;28;20024;-53
2021/05/15 05:29:09;;;;;;;0.08;0.08;;;;;;;35.43;20.70;98451.72;5086722;28;20035;-52
2021/05/15 05:31:39;;;;;;;0.10;0.10;;;;;;;34.96;20.80;98439.53;5089710;28;20736;-58
2021/05/15 05:34:08;;;;;;;0.20;0.20;;;;;;;34.55;20.94;98443.56;5088512;28;20043;-49
2021/05/15 05:36:36;;;;;;;0.20;0.20;;;;;;;34.22;20.96;98441.88;5049218;28;20033;-51
2021/05/15 05:39:07;;;;;;;0.75;0.15;;;;;;;33.91;21.06;98440.53;5087313;28;20039;-54
2021/05/15 05:41:32;;;;;;;0.15;0.15;;;;;;;33.64;21.05;98453.03;5084935;28;20047;-49
2021/05/15 05:43:58;;;;;;;0.10;0.10;;;;;;;33.43;20.81;98448.03;5085186;28;20023;-50
2021/05/15 05:46:24;;;;;;;0.05;0.05;;;;;;;33.26;21.00;98448.72;5086598;28;20040;-53
2021/05/15 05:48:50;;;;;;;0.20;0.20;;;;;;;33.10;20.94;98444.16;5088950;28;20032;-50
2021/05/15 05:51:15;;;;;;;0.25;0.25;;;;;;;33.03;20.84;98446.13;5089659;28;20065;-51
2021/05/15 05:53:41;;;;;;;0.20;0.20;;;;;;;32.96;20.71;98442.00;5086260;28;20024;-49
2021/05/15 05:56:07;;;;;;;0.10;0.10;;;;;;;32.91;20.50;98444.41;5069081;28;20035;-52
2021/05/15 05:58:33;;;;;;;0.10;0.10;;;;;;;32.84;20.21;98436.63;5088658;28;20023;-50
2021/05/15 06:00:59;;;;;;;0.35;0.35;;;;;;;32.75;20.40;98444.69;5088534;28;20032;-53
2021/05/15 06:03:24;;;;;;;0.08;0.08;;;;;;;32.63;20.55;98434.41;5088028;28;20082;-49
2021/05/15 06:05:50;;;;;;;0.10;0.10;;;;;;;32.54;20.63;98431.06;5087220;28;20028;-52
2021/05/15 06:08:16;;;;;;;1.48;0.68;;;;;;;32.45;20.46;98435.06;5071028;28;20036;-51
2021/05/15 06:10:42;;;;;;;0.10;0.10;;;;;;;32.36;20.55;98440.22;5087816;28;20060;-50
2021/05/15 06:13:09;;;;;;;0.10;0.10;;;;;;;32.25;20.62;98428.75;5089082;28;20036;-48
2021/05/15 06:15:36;;;;;;;0.00;0.00;;;;;;;32.17;20.39;98437.59;5088840;28;20030;-51
2021/05/15 06:18:05;;;;;;;0.13;0.13;;;;;;;32.02;20.34;98430.91;5086523;28;20031;-50
2021/05/15 06:20:31;;;;;;;0.00;0.00;;;;;;;31.89;20.44;98427.50;5088680;28;20523;-50
2021/05/15 06:22:57;;;;;;;0.15;0.15;;;;;;;31.76;20.58;98430.63;5086291;28;20135;-53
2021/05/15 06:25:23;;;;;;;0.13;0.13;;;;;;;31.65;20.61;98440.19;5068206;28;20036;-52
2021/05/15 06:27:49;;;;;;;0.00;0.00;;;;;;;31.56;20.57;98434.81;5087224;28;20557;-51
2021/05/15 06:30:16;;;;;;;0.10;0.10;;;;;;;31.49;20.61;98429.81;5084289;28;20101;-51
2021/05/15 06:32:42;;;;;;;0.00;0.00;;;;;;;31.49;20.62;98432.66;5084753;28;20505;-49
2021/05/15 06:35:10;;;;;;;0.90;0.45;;;;;;;31.51;20.48;98435.09;5086568;28;20032;-57
2021/05/15 06:37:37;;;;;;;0.00;0.00;;;;;;;31.45;20.46;98432.63;5088764;28;20135;-50
2021/05/15 06:40:04;;;;;;;0.03;0.03;;;;;;;31.41;20.35;98430.94;5088398;28;20036;-52
2021/05/15 06:42:30;;;;;;;0.10;0.10;;;;;;;31.35;20.39;98424.78;5070131;28;20020;-53
2021/05/15 06:44:56;;;;;;;0.10;0.10;;;;;;;31.36;20.04;98417.91;5085659;28;20027;-49
2021/05/15 06:47:22;;;;;;;0.10;0.10;;;;;;;31.44;20.19;98430.16;5087936;28;20048;-49
2021/05/15 06:49:49;;;;;;;0.45;0.20;;;;;;;31.53;20.09;98435.56;5088571;28;20032;-52
2021/05/15 06:52:15;;;;;;;0.30;0.30;;;;;;;31.56;20.03;98431.97;5088234;28;20057;-51
2021/05/15 06:54:41;;;;;;;0.10;0.10;;;;;;;31.51;20.10;98424.59;5088190;28;20034;-53
2021/05/15 06:57:07;;;;;;;0.55;0.55;;;;;;;31.41;20.13;98434.59;5088671;28;20032;-51
2021/05/15 06:59:34;;;;;;;0.10;0.10;;;;;;;31.32;20.21;98428.38;5086849;28;20089;-49
2021/05/15 07:02:01;;;;;;;0.00;0.00;;;;;;;31.22;20.22;98420.53;5088451;28;20643;-49
2021/05/15 07:04:28;;;;;;;0.10;0.10;;;;;;;31.18;20.27;98420.47;5084932;28;20085;-51
2021/05/15 07:06:54;;;;;;;0.10;0.10;;;;;;;31.15;20.15;98428.94;5072338;28;20413;-54
2021/05/15 07:09:19;;;;;;;0.05;0.05;;;;;;;31.14;20.36;98422.47;5092131;28;20043;-48
2021/05/15 07:11:45;;;;;;;1.08;0.20;;;;;;;31.11;20.18;98420.41;5092116;28;20460;-47
2021/05/15 07:14:11;;;;;;;0.00;0.00;;;;;;;31.10;20.28;98415.91;5092289;28;20027;-52
2021/05/15 07:16:37;;;;;;;0.10;0.10;;;;;;;31.06;20.33;98415.03;5086780;28;21099;-54
2021/05/15 07:19:03;;;;;;;0.10;0.10;;;;;;;30.98;20.51;98419.75;5087173;28;20085;-53
2021/05/15 07:21:29;;;;;;;0.10;0.10;;;;;;;30.91;20.59;98413.97;5090560;28;20052;-51
2021/05/15 07:23:55;;;;;;;0.00;0.00;;;;;;;30.84;20.47;98423.19;5092398;28;20024;-49
2021/05/15 07:26:21;;;;;;;0.30;0.30;;;;;;;30.81;20.40;98417.47;5089767;28;20028;-50
2021/05/15 07:28:47;;;;;;;0.10;0.10;;;;;;;30.79;20.72;98425.53;5071635;28;20439;-52
2021/05/15 07:31:13;;;;;;;0.43;0.38;;;;;;;30.78;20.65;98415.38;5092256;28;20102;-52
2021/05/15 07:33:38;;;;;;;0.50;0.25;;;;;;;30.78;20.47;98409.72;5092406;28;20024;-50
2021/05/15 07:36:05;;;;;;;0.00;0.00;;;;;;;30.79;20.63;98389.50;5089286;28;20501;-49
2021/05/15 07:38:31;;;;;;;0.10;0.10;;;;;;;30.82;20.63;98407.78;5089398;28;20039;-50
2021/05/15 07:40:58;;;;;;;0.00;0.00;;;;;;;30.85;20.55;98395.66;5092304;28;20043;-48
2021/05/15 07:43:25;;;;;;;0.00;0.00;;;;;;;30.85;20.56;98399.31;5091230;28;20043;-52
2021/05/15 07:45:53;;;;;;;0.10;0.10;;;;;;;30.83;20.66;98373.38;5092386;28;20108;-48
2021/05/15 07:48:28;;;;;;;0.22;0.22;;;;;;;30.78;20.78;98390.69;5074347;28;20557;-50
2021/05/15 07:50:56;;;;;;;0.10;0.10;;;;;;;30.73;20.71;98385.38;5093077;28;20032;-50
2021/05/15 07:53:22;;;;;;;0.10;0.10;;;;;;;30.67;20.75;98396.19;5090719;28;20032;-48
2021/05/15 07:55:49;;;;;;;0.00;0.00;;;;;;;30.62;20.90;98398.53;5091187;28;20383;-51
2021/05/15 07:58:16;;;;;;;0.10;0.10;;;;;;;30.55;20.78;98390.72;5089283;28;20036;-51
2021/05/15 08:00:42;;;;;;;0.00;0.00;;;;;;;30.49;21.12;98390.25;5091246;28;20024;-52
2021/05/15 08:03:08;;;;;;;0.10;0.10;;;;;;;30.42;21.10;98394.94;5091167;28;20028;-50
2021/05/15 08:05:34;;;;;;;0.10;0.10;;;;;;;30.34;21.00;98383.47;5090629;28;20054;-51
2021/05/15 08:08:02;;;;;;;0.17;0.17;;;;;;;30.28;21.14;98376.47;5091180;28;20027;-49
2021/05/15 08:10:29;;;;;;;0.10;0.10;;;;;;;30.26;21.09;98383.75;5073244;28;20041;-44
2021/05/15 08:12:57;;;;;;;0.98;0.20;;;;;;;30.26;21.29;98384.56;5090449;28;20032;-51
2021/05/15 08:15:24;;;;;;;0.10;0.10;;;;;;;30.28;21.22;98382.16;5090993;28;20405;-49
2021/05/15 08:17:51;;;;;;;0.00;0.00;;;;;;;30.34;21.22;98396.81;5090307;28;20130;-53
2021/05/15 08:20:17;;;;;;;0.10;0.10;;;;;;;30.39;21.27;98391.66;5090209;28;20667;-52
2021/05/15 08:22:43;;;;;;;2.50;0.13;;;;;;;30.45;20.88;98391.34;5090714;28;20466;-50
2021/05/15 08:25:11;;;;;;;0.28;0.28;;;;;;;30.51;20.73;98384.19;5090341;28;20032;-51
2021/05/15 08:27:39;;;;;;;0.00;0.00;;;;;;;30.56;21.26;98381.84;5088490;28;20035;-48
2021/05/15 08:30:08;;;;;;;0.00;0.00;;;;;;;30.64;20.85;98368.63;5070835;28;20035;-49
2021/05/15 08:32:34;;;;;;;0.10;0.10;;;;;;;30.72;20.80;98378.84;5069230;28;20032;-50
2021/05/15 08:35:00;;;;;;;0.10;0.10;;;;;;;30.78;20.80;98378.56;5090421;28;20031;-50
2021/05/15 08:37:26;;;;;;;0.10;0.10;;;;;;;30.82;20.90;98376.59;5071795;28;20028;-49
2021/05/15 08:39:52;;;;;;;0.00;0.00;;;;;;;30.86;20.92;98374.59;5072510;28;20032;-50
2021/05/15 08:42:21;;;;;;;0.00;0.00;;;;;;;30.89;20.64;98374.69;5090332;28;20077;-54
2021/05/15 08:44:48;;;;;;;0.00;0.00;;;;;;;30.96;20.80;98367.47;5070047;28;20036;-51
2021/05/15 08:47:17;;;;;;;0.10;0.10;;;;;;;31.01;20.57;98370.03;5090225;28;20052;-51
2021/05/15 08:49:45;;;;;;;0.10;0.10;;;;;;;31.01;20.73;98368.00;5089522;28;20062;-52
2021/05/15 08:52:13;;;;;;;1.45;0.20;;;;;;;31.02;20.67;98375.31;5071647;28;20028;-52
2021/05/15 08:54:39;;;;;;;0.08;0.08;;;;;;;31.04;20.70;98386.25;5090660;28;20063;-51
2021/05/15 08:57:12;;;;;;;0.13;0.13;;;;;;;31.05;20.58;98368.88;5071882;28;20060;-52
2021/05/15 08:59:41;;;;;;;0.00;0.00;;;;;;;31.07;20.53;98391.16;5088258;28;20127;-50
2021/05/15 09:02:07;;;;;;;0.10;0.10;;;;;;;31.07;20.64;98383.47;5086923;28;20127;-51
2021/05/15 09:04:32;;;;;;;0.00;0.00;;;;;;;31.06;20.52;98398.03;5089479;28;20051;-51
2021/05/15 09:06:58;;;;;;;0.20;0.20;;;;;;;31.08;20.55;98390.78;5071714;28;20035;-52
2021/05/15 09:09:24;;;;;;;0.10;0.10;;;;;;;31.10;20.46;98393.25;5071270;28;20447;-49
2021/05/15 09:11:50;;;;;;;0.00;0.00;;;;;;;31.10;20.55;98377.03;5089736;28;20036;-50
2021/05/15 09:14:18;;;;;;;0.30;0.30;;;;;;;31.10;20.50;98382.69;5088606;28;20058;-54
2021/05/15 09:16:49;;;;;;;0.03;0.03;;;;;;;31.07;20.33;98369.28;5088298;28;20065;-52
2021/05/15 09:19:27;;;;;;;0.10;0.10;;;;;;;31.03;20.43;98385.44;5088359;28;20123;-51
2021/05/15 09:22:02;;;;;;;0.10;0.10;;;;;;;30.98;20.67;98385.75;5087842;28;20036;-48
2021/05/15 09:24:45;;;;;;;0.20;0.20;;;;;;;30.92;20.53;98382.41;5087449;28;20447;-47
2021/05/15 09:27:12;;;;;;;0.10;0.10;;;;;;;30.92;20.51;98387.28;5084705;28;20173;-52
2021/05/15 09:29:43;;;;;;;0.10;0.10;;;;;;;30.92;20.46;98376.75;5088915;28;20040;-51
2021/05/15 09:32:09;;;;;;;0.10;0.10;;;;;;;30.96;20.44;98379.63;5089081;28;20566;-49
2021/05/15 09:34:49;;;;;;;0.20;0.20;;;;;;;31.04;20.53;98375.72;5087812;28;20028;-51
2021/05/15 09:37:32;;;;;;;0.38;0.38;;;;;;;31.09;20.44;98385.91;5088010;28;20028;-53
2021/05/15 09:40:25;;;;;;;0.10;0.10;;;;;;;31.07;20.38;98377.00;5088587;28;20396;-48
2021/05/15 09:42:56;;;;;;;0.10;0.10;;;;;;;31.09;20.37;98375.38;5086167;28;20036;-53
2021/05/15 09:45:29;;;;;;;0.35;0.10;;;;;;;31.10;20.26;98377.03;5089138;28;20113;-45
2021/05/15 09:48:02;;;;;;;0.30;0.30;;;;;;;31.15;20.36;98369.41;5086807;28;20036;-46
2021/05/15 09:50:31;;;;;;;0.10;0.10;;;;;;;31.20;20.25;98374.72;5070481;28;20028;-51
2021/05/15 09:53:13;;;;;;;1.35;0.30;;;;;;;31.24;20.28;98364.25;5087626;28;20031;-50
2021/05/15 09:55:44;;;;;;;0.10;0.10;;;;;;;31.27;20.07;98357.81;5088213;28;20513;-52
2021/05/15 09:58:11;;;;;;;0.00;0.00;;;;;;;31.25;20.27;98363.88;5088138;28;20055;-57
2021/05/15 10:00:42;;;;;;;0.10;0.10;;;;;;;31.22;20.29;98349.66;5086829;28;20814;-62
2021/05/15 10:03:38;;;;;;;0.00;0.00;;;;;;;31.21;20.27;98365.03;5088079;28;20024;-51
2021/05/15 10:06:13;;;;;;;0.10;0.10;;;;;;;31.16;20.49;98369.00;4984943;28;20437;-51
2021/05/15 10:08:40;;;;;;;0.40;0.20;;;;;;;31.08;20.44;98362.44;4987501;28;20077;-51
2021/05/15 10:11:06;;;;;;;0.00;0.00;;;;;;;31.01;20.50;98368.00;4986970;28;20093;-49
2021/05/15 10:13:33;;;;;;;0.05;0.05;;;;;;;30.95;20.44;98366.66;4985845;28;20034;-49
2021/05/15 10:16:01;;;;;;;0.00;0.00;;;;;;;30.87;20.67;98357.22;4988151;28;20042;-49
2021/05/15 10:18:28;;;;;;;0.43;0.43;;;;;;;30.82;20.48;98351.09;4987928;28;20037;-52
2021/05/15 10:20:55;;;;;;;0.57;0.38;;;;;;;30.69;20.71;98351.28;4987916;28;20038;-49
2021/05/15 10:23:22;;;;;;;0.10;0.10;;;;;;;30.61;20.92;98341.06;4988457;28;20038;-50
2021/05/15 10:25:50;;;;;;;0.25;0.17;;;;;;;30.55;20.77;98351.91;4971113;28;20037;-53
2021/05/15 10:28:31;;;;;;;0.10;0.10;;;;;;;30.46;21.05;98350.50;4988025;28;20030;-50
2021/05/15 10:31:04;;;;;;;0.00;0.00;;;;;;;30.39;20.93;98349.16;4987935;28;20064;-52
2021/05/15 10:33:31;;;;;;;0.10;0.10;;;;;;;30.34;20.90;98349.47;4985815;28;20041;-51
2021/05/15 10:35:57;;;;;;;0.10;0.10;;;;;;;30.30;20.79;98362.78;4988306;28;20516;-53
2021/05/15 10:38:33;;;;;;;6.32;0.55;;;;;;;30.32;20.78;98354.72;4987857;28;20708;-53
2021/05/15 10:41:09;;;;;;;0.00;0.00;;;;;;;30.31;20.75;98355.91;4988791;28;20042;-52
2021/05/15 10:43:37;;;;;;;0.00;0.00;;;;;;;30.32;20.82;98359.56;5092986;28;20066;-53
2021/05/15 10:46:19;;;;;;;0.10;0.10;;;;;;;30.31;20.75;98353.06;5095665;28;20045;-52
2021/05/15 10:49:03;;;;;;;0.00;0.00;;;;;;;30.29;20.91;98361.13;5096541;28;20036;-50
2021/05/15 10:51:41;;;;;;;0.10;0.10;;;;;;;30.27;20.89;98355.03;5096598;28;20042;-50
2021/05/15 10:54:08;;;;;;;0.00;0.00;;;;;;;30.26;20.87;98355.44;5096651;28;20092;-49
2021/05/15 10:56:35;;;;;;;0.05;0.05;;;;;;;30.25;20.99;98348.91;5096696;28;20397;-50
2021/05/15 10:59:16;;;;;;;0.30;0.13;;;;;;;30.26;20.78;98358.25;5096358;28;20032;-51
2021/05/15 11:01:52;;;;;;;0.10;0.10;;;;;;;30.24;20.66;98352.94;5096506;28;20039;-52
2021/05/15 11:04:25;;;;;;;0.00;0.00;;;;;;;30.22;20.80;98344.03;5078005;28;20027;-52
2021/05/15 11:07:01;;;;;;;0.08;0.08;;;;;;;30.20;20.78;98347.22;5095673;28;20032;-52
2021/05/15 11:09:28;;;;;;;0.10;0.10;;;;;;;30.21;20.98;98342.38;5096361;28;20035;-53
2021/05/15 11:12:04;;;;;;;0.00;0.00;;;;;;;30.19;20.91;98339.13;5096411;28;20392;-52
2021/05/15 11:14:32;;;;;;;0.30;0.20;;;;;;;30.15;20.65;98336.22;5096482;28;20036;-51
2021/05/15 11:17:15;;;;;;;0.35;0.30;;;;;;;30.14;20.82;98336.59;5096647;28;20069;-51
2021/05/15 11:19:53;;;;;;;0.10;0.10;;;;;;;30.10;20.67;98335.72;5094733;28;20028;-52
2021/05/15 11:22:20;;;;;;;0.00;0.00;;;;;;;30.07;20.82;98342.97;5096014;28;20131;-51
2021/05/15 11:24:56;;;;;;;0.10;0.10;;;;;;;30.03;20.83;98340.03;5095882;28;20055;-52
2021/05/15 11:27:23;;;;;;;0.20;0.20;;;;;;;30.03;20.84;98345.72;5095777;28;20516;-52
2021/05/15 11:30:08;;;;;;;0.00;0.00;;;;;;;30.03;20.92;98340.03;5096389;28;20032;-49
2021/05/15 11:32:34;;;;;;;1.35;0.10;;;;;;;30.00;20.84;98340.81;5078522;28;20472;-49
2021/05/15 11:35:03;;;;;;;0.32;0.32;;;;;;;29.95;21.17;98334.66;5095943;28;20086;-51
2021/05/15 11:37:29;;;;;;;0.10;0.10;;;;;;;29.90;21.21;98349.09;5095705;28;20043;-49
2021/05/15 11:39:54;;;;;;;0.17;0.17;;;;;;;29.85;20.85;98347.41;5095581;28;20028;-49
2021/05/15 11:42:27;;;;;;;0.00;0.00;;;;;;;29.85;20.84;98341.75;5095788;28;20064;-49